Main page
METAR-TAF:

METAR-TAF

Airports :

Athens International Airport

Athens, Greece

latitude: 37-56N, longitude: 023-56E, elevation: 94 m

Current weather observation

The report was made 42 minutes ago, at 10:50 UTC
Wind 16 kt from the East/Northeast
Temperature 31°C
Humidity 36%
Pressure 1011 hPa
Visibility 10 km or more
Few clouds at a height of 5000 ft

METAR: LGAV 151050Z 07016KT 9999 FEW050 31/14 Q1011 NOSIG

Time: 14:32 (11:32 UTC)

Forecast

The report was made 6 hours and 32 minutes ago, at 05:00 UTC
Forecast valid from 15 at 06 UTC to 16 at 06 UTC
Wind 3 kt from variable directions
Visibility 10 km or more
Few clouds at a height of 2500 ft
Becoming
from 15 at 06 UTC to 15 at 08 UTC
Wind 10 kt from the North
Becoming
from 15 at 08 UTC to 15 at 10 UTC
Wind 20 kt from the Northeast
Becoming
from 15 at 16 UTC to 15 at 18 UTC
Wind 5 kt from variable directions

TAF: LGAV 150500Z 1506/1606 VRB03KT 9999 FEW025 BECMG 1506/1508 01010KT BECMG 1508/1510 04020KT BECMG 1516/1518 VRB05KT

Weather observations and forecasts of more than 4000 airports (METAR and TAF reports).

The available stations are represented by yellow and red dots on the map.

Hover mouse over dot to see the name of the station.

Then click to see weather observations and forecasts.

To change the map : click on the green buttons with a black cross to zoom in, on the green button with a dash to zoom out, or on the green arrows for adjacent maps.


METAR-TAF: